createdAt,value
2022-11-05T00:13:11.925Z,949.02
2022-11-05T00:28:14.361Z,948.5
2022-11-05T00:43:16.565Z,948.17
2022-11-05T00:58:18.999Z,947.92
2022-11-05T01:13:21.245Z,947.78
2022-11-05T01:28:23.591Z,947.28
2022-11-05T01:43:25.862Z,946.65
2022-11-05T01:58:28.079Z,946.42
2022-11-05T02:13:30.344Z,945.98
2022-11-05T02:28:32.612Z,945.6
2022-11-05T02:43:35.063Z,945.2
2022-11-05T02:58:37.323Z,944.75
2022-11-05T03:13:39.662Z,944.23
2022-11-05T03:28:41.853Z,943.73
2022-11-05T03:43:44.077Z,942.81
2022-11-05T03:58:46.375Z,942.3
2022-11-05T04:13:48.613Z,941.71
2022-11-05T04:28:50.845Z,941.27
2022-11-05T04:43:53.211Z,940.62
2022-11-05T04:58:55.531Z,940.26
2022-11-05T05:13:57.766Z,939.88
2022-11-05T05:29:00.374Z,939.45
2022-11-05T05:44:02.756Z,939.12
2022-11-05T05:59:04.957Z,938.92
2022-11-05T06:14:07.278Z,938.31
2022-11-05T06:29:09.555Z,938.14
2022-11-05T06:44:11.928Z,937.48
2022-11-05T06:59:14.133Z,937.15
2022-11-05T07:14:16.375Z,936.93
2022-11-05T07:29:18.592Z,936.62
2022-11-05T07:44:20.927Z,936.54
2022-11-05T07:59:23.192Z,936.2
2022-11-05T08:14:25.392Z,935.99
2022-11-05T08:29:27.627Z,936.32
2022-11-05T08:44:29.879Z,935.79
2022-11-05T08:59:32.140Z,935.78
2022-11-05T09:14:34.450Z,936.22
2022-11-05T09:29:36.788Z,936.44
2022-11-05T09:44:38.984Z,936.46
2022-11-05T09:59:41.245Z,936.47
2022-11-05T10:14:43.467Z,936.84
2022-11-05T10:29:45.682Z,937.3
2022-11-05T10:44:47.870Z,937.46
2022-11-05T10:59:50.129Z,937.75
2022-11-05T11:14:52.365Z,938.87
2022-11-05T11:29:54.623Z,939.91
2022-11-05T11:44:56.825Z,940.06
2022-11-05T12:00:08.770Z,940.9
2022-11-05T12:15:11.950Z,941.62
2022-11-05T12:30:14.439Z,942.28
2022-11-05T12:45:16.751Z,943.1
2022-11-05T13:00:18.981Z,943.68
2022-11-05T13:15:21.336Z,944.08
2022-11-05T13:30:23.615Z,944.56
2022-11-05T13:45:25.877Z,945.03
2022-11-05T14:00:28.102Z,945.63
2022-11-05T14:15:30.453Z,946.03
2022-11-05T14:30:36.074Z,946.68
2022-11-05T14:45:40.769Z,947.28
2022-11-05T15:00:43.006Z,947.87
2022-11-05T15:15:45.275Z,948.25
2022-11-05T15:30:47.588Z,948.55
2022-11-05T15:45:49.765Z,948.92
2022-11-05T16:00:52.017Z,949.61
2022-11-05T16:15:54.276Z,949.99
2022-11-05T16:30:56.633Z,950.44
2022-11-05T16:45:58.988Z,950.72
2022-11-05T17:01:01.443Z,950.84
2022-11-05T17:16:03.743Z,951.09
2022-11-05T17:31:05.956Z,951.37
2022-11-05T17:46:08.213Z,951.42
2022-11-05T18:01:10.552Z,951.56
2022-11-05T18:16:12.819Z,951.8
2022-11-05T18:31:18.021Z,952.25
2022-11-05T18:46:51.032Z,952.35
2022-11-05T19:01:58.728Z,952.31
2022-11-05T19:17:01.137Z,952.34
2022-11-05T19:32:03.404Z,952.36
2022-11-05T19:47:05.664Z,952.17
2022-11-05T20:02:11.937Z,952.32
2022-11-05T20:17:18.199Z,952.41
2022-11-05T20:32:20.586Z,952.47
2022-11-05T20:47:23.341Z,952.45
2022-11-05T21:02:25.773Z,952.46
2022-11-05T21:17:28.461Z,952.49
2022-11-05T21:32:30.910Z,952.58
2022-11-05T21:47:33.103Z,952.58
2022-11-05T22:02:35.662Z,952.54
2022-11-05T22:17:41.388Z,952.46
2022-11-05T22:32:46.507Z,952.72
2022-11-05T22:47:48.870Z,952.73
2022-11-05T23:02:51.435Z,952.97
2022-11-05T23:17:53.870Z,952.93
2022-11-05T23:32:56.393Z,952.87
2022-11-05T23:47:58.690Z,953.05
